Time;durP1;ratioP1;P1;durP2;ratioP2;P2;SDS_P1;SDS_P2;PMS_P1;PMS_P2;Temp;Humidity;BMP_temperature;BMP_pressure;BME280_temperature;BME280_humidity;BME280_pressure;Samples;Min_cycle;Max_cycle;Signal;HPM_P1;HPM_P2
2023/03/21 00:00:33;;;;;;;;;16.50;14.25;;;;;9.80;89.78;101556.59;5008667;28;10604;-67
2023/03/21 00:03:00;;;;;;;;;25.75;23.25;;;;;9.74;89.38;101559.97;5006208;28;10703;-67
2023/03/21 00:05:26;;;;;;;;;25.50;22.00;;;;;9.71;89.72;101552.25;5011021;28;10907;-67
2023/03/21 00:07:53;;;;;;;;;14.50;14.50;;;;;9.74;89.97;101548.38;5009801;28;11573;-67
2023/03/21 00:10:20;;;;;;;;;16.50;15.25;;;;;9.75;90.00;101541.97;5003397;28;10660;-67
2023/03/21 00:13:04;;;;;;;;;17.00;17.00;;;;;9.76;90.09;101540.97;4998641;28;10894;-67
2023/03/21 00:15:31;;;;;;;;;16.50;15.50;;;;;9.78;90.58;101547.84;4995907;28;10947;-66
2023/03/21 00:18:11;;;;;;;;;22.50;18.50;;;;;9.77;90.01;101537.28;5005765;28;10742;-67
2023/03/21 00:20:38;;;;;;;;;20.75;16.25;;;;;9.79;90.14;101537.94;5010004;28;10698;-67
2023/03/21 00:23:04;;;;;;;;;13.75;13.00;;;;;9.79;89.85;101541.47;5008306;28;10626;-67
2023/03/21 00:25:31;;;;;;;;;16.50;14.50;;;;;9.79;90.06;101538.78;4997963;28;10785;-66
2023/03/21 00:27:58;;;;;;;;;21.50;17.00;;;;;9.78;89.99;101538.97;5008383;28;10651;-66
2023/03/21 00:30:34;;;;;;;;;16.00;15.25;;;;;9.76;89.75;101532.91;4987350;28;10764;-66
2023/03/21 00:33:00;;;;;;;;;19.75;16.00;;;;;9.76;90.01;101527.53;4981625;28;10891;-68
2023/03/21 00:35:43;;;;;;;;;18.50;17.00;;;;;9.75;90.13;101537.44;4991727;28;10708;-65
2023/03/21 00:38:27;;;;;;;;;18.00;18.00;;;;;9.79;89.73;101525.34;5009710;28;10769;-66
2023/03/21 00:40:54;;;;;;;;;22.00;16.75;;;;;9.80;89.61;101527.03;5009352;28;10745;-66
2023/03/21 00:43:28;;;;;;;;;21.75;20.00;;;;;9.79;89.95;101519.94;4991814;28;10909;-66
2023/03/21 00:45:59;;;;;;;;;23.75;20.00;;;;;9.73;89.86;101523.34;4999376;28;10916;-66
2023/03/21 00:48:26;;;;;;;;;19.50;17.50;;;;;9.74;89.80;101524.19;5002220;28;11099;-63
2023/03/21 00:50:56;;;;;;;;;18.50;17.50;;;;;9.74;90.26;101518.81;4998246;28;10797;-66
2023/03/21 00:53:22;;;;;;;;;23.50;20.00;;;;;9.72;89.95;101508.19;4992175;28;10750;-66
2023/03/21 00:55:49;;;;;;;;;22.50;19.75;;;;;9.73;90.02;101511.75;5010458;28;11132;-65
2023/03/21 00:58:16;;;;;;;;;18.00;15.00;;;;;9.73;90.42;101507.22;4987885;28;11073;-66
2023/03/21 01:00:43;;;;;;;;;17.00;17.00;;;;;9.74;90.09;101506.19;4983969;28;10901;-65
2023/03/21 01:03:12;;;;;;;;;21.75;20.25;;;;;9.74;89.88;101508.06;5008237;28;10820;-66
2023/03/21 01:06:05;;;;;;;;;18.50;17.00;;;;;9.71;89.90;101505.69;4992936;28;10871;-64
2023/03/21 01:08:34;;;;;;;;;19.25;17.75;;;;;9.69;89.90;101505.88;5008426;28;10749;-64
2023/03/21 01:11:23;;;;;;;;;20.50;18.50;;;;;9.69;90.21;101487.06;5010568;28;10747;-64
2023/03/21 01:13:50;;;;;;;;;17.50;14.50;;;;;9.71;89.84;101492.25;5009805;28;10753;-64
2023/03/21 01:16:27;;;;;;;;;20.50;18.50;;;;;9.71;90.10;101487.72;4991976;28;10875;-64
2023/03/21 01:18:54;;;;;;;;;17.75;17.00;;;;;9.73;89.83;101484.88;4988274;28;10791;-65
2023/03/21 01:21:21;;;;;;;;;11.75;11.75;;;;;9.72;90.22;101484.00;5012153;28;10674;-64
2023/03/21 01:23:47;;;;;;;;;24.50;18.50;;;;;9.72;90.35;101483.19;5012669;28;10584;-65
2023/03/21 01:26:14;;;;;;;;;18.25;15.00;;;;;9.69;90.27;101479.00;5008052;28;10752;-65
2023/03/21 01:28:44;;;;;;;;;18.75;18.25;;;;;9.71;90.20;101470.75;5011814;28;10766;-69
2023/03/21 01:31:13;;;;;;;;;18.50;16.25;;;;;9.65;90.39;101469.59;5010612;28;10748;-65
2023/03/21 01:33:41;;;;;;;;;18.25;18.25;;;;;9.67;90.23;101467.56;5005117;28;10621;-65
2023/03/21 01:36:20;;;;;;;;;23.25;18.75;;;;;9.70;90.05;101472.59;5013284;28;10568;-65
2023/03/21 01:38:52;;;;;;;;;19.00;16.25;;;;;9.71;90.17;101466.22;4992709;28;10687;-65
2023/03/21 01:41:31;;;;;;;;;15.00;13.25;;;;;9.71;90.28;101460.00;4993288;28;10651;-66
2023/03/21 01:44:19;;;;;;;;;20.25;17.25;;;;;9.70;90.41;101447.56;4989496;28;10576;-66
2023/03/21 01:46:49;;;;;;;;;21.00;19.25;;;;;9.66;90.44;101458.66;5003331;28;10786;-65
2023/03/21 01:49:48;;;;;;;;;17.50;17.50;;;;;9.70;90.72;101452.94;5010262;28;10758;-65
2023/03/21 01:52:24;;;;;;;;;21.50;16.00;;;;;9.73;90.17;101448.06;4995787;28;10951;-65
2023/03/21 01:55:10;;;;;;;;;20.50;20.50;;;;;9.68;90.51;101445.03;4992901;28;10887;-65
2023/03/21 01:57:51;;;;;;;;;27.50;23.25;;;;;9.69;90.72;101452.13;4987506;28;10822;-65
2023/03/21 02:00:37;;;;;;;;;19.50;17.25;;;;;9.71;90.64;101449.25;4990219;28;10817;-65
2023/03/21 02:03:19;;;;;;;;;22.75;19.25;;;;;9.70;90.42;101450.25;4991750;28;10709;-65
2023/03/21 02:06:17;;;;;;;;;20.75;20.75;;;;;9.71;90.54;101446.56;4989774;28;10869;-65
2023/03/21 02:08:47;;;;;;;;;29.50;25.00;;;;;9.69;90.21;101435.16;4987700;28;10745;-63
2023/03/21 02:11:15;;;;;;;;;24.75;23.00;;;;;9.70;90.47;101434.13;4996147;28;11013;-64
2023/03/21 02:13:42;;;;;;;;;29.00;25.50;;;;;9.70;90.35;101426.06;5003318;28;11015;-64
2023/03/21 02:16:34;;;;;;;;;24.75;22.00;;;;;9.70;90.55;101426.91;4989275;28;11026;-66
2023/03/21 02:19:31;;;;;;;;;29.75;27.00;;;;;9.69;90.45;101417.16;4981905;28;11089;-65
2023/03/21 02:22:31;;;;;;;;;26.00;23.50;;;;;9.66;90.37;101418.34;4987108;28;10927;-65
2023/03/21 02:25:33;;;;;;;;;31.00;23.00;;;;;9.62;90.70;101419.72;4994986;28;11115;-65
2023/03/21 02:28:10;;;;;;;;;30.50;27.50;;;;;9.60;90.86;101419.06;4988546;28;11118;-65
2023/03/21 02:30:45;;;;;;;;;23.00;19.50;;;;;9.65;90.86;101414.00;4994655;28;11005;-64
2023/03/21 02:33:38;;;;;;;;;19.75;16.25;;;;;9.66;90.62;101406.75;4992321;28;10961;-64
2023/03/21 02:36:25;;;;;;;;;30.00;25.25;;;;;9.63;90.77;101413.31;4992486;28;11108;-66
2023/03/21 02:39:07;;;;;;;;;40.25;24.00;;;;;9.65;90.76;101415.84;4990492;28;11340;-64
2023/03/21 02:41:48;;;;;;;;;30.50;22.00;;;;;9.61;90.75;101401.91;4993788;28;11111;-64
2023/03/21 02:44:38;;;;;;;;;29.25;25.00;;;;;9.61;91.25;101403.75;4994811;28;11093;-66
2023/03/21 02:47:11;;;;;;;;;30.00;26.50;;;;;9.62;91.15;101398.19;4989571;28;11160;-65
2023/03/21 02:50:02;;;;;;;;;23.50;20.00;;;;;9.64;91.04;101400.69;4991601;28;11096;-65
2023/03/21 02:52:32;;;;;;;;;34.00;28.50;;;;;9.62;91.18;101394.69;5003860;28;10868;-65
2023/03/21 02:55:14;;;;;;;;;29.25;25.75;;;;;9.63;91.41;101396.34;4992980;28;11218;-65
2023/03/21 02:58:02;;;;;;;;;28.50;24.00;;;;;9.64;91.09;101388.13;4987255;28;11093;-65
2023/03/21 03:00:44;;;;;;;;;30.25;20.75;;;;;9.68;91.41;101385.06;4993863;28;11039;-65
2023/03/21 03:03:18;;;;;;;;;31.50;28.00;;;;;9.66;90.64;101382.56;4990927;28;10941;-66
2023/03/21 03:06:02;;;;;;;;;30.75;23.75;;;;;9.68;91.31;101388.59;4991687;28;11021;-65
2023/03/21 03:08:48;;;;;;;;;30.75;30.75;;;;;9.64;90.56;101388.13;4988996;28;11157;-65
2023/03/21 03:11:33;;;;;;;;;39.25;28.75;;;;;9.64;91.15;101380.06;4994027;28;11171;-66
2023/03/21 03:14:18;;;;;;;;;35.00;27.50;;;;;9.66;91.09;101383.41;5004234;28;11180;-67
2023/03/21 03:17:24;;;;;;;;;37.50;33.50;;;;;9.66;90.62;101383.41;5003926;28;11939;-67
2023/03/21 03:20:19;;;;;;;;;31.25;27.75;;;;;9.70;90.97;101383.06;4984536;28;11277;-66
2023/03/21 03:23:06;;;;;;;;;29.50;27.00;;;;;9.69;90.65;101373.31;5002037;28;11272;-65
2023/03/21 03:26:14;;;;;;;;;33.25;31.50;;;;;9.68;90.83;101380.53;4991202;28;11959;-65
2023/03/21 03:28:47;;;;;;;;;30.00;27.75;;;;;9.66;90.51;101377.19;4990567;28;11324;-66
2023/03/21 03:31:24;;;;;;;;;27.50;26.25;;;;;9.69;90.83;101370.63;4992766;28;11189;-65
2023/03/21 03:34:03;;;;;;;;;37.00;33.50;;;;;9.65;90.64;101367.47;4993317;28;11014;-68
2023/03/21 03:36:38;;;;;;;;;41.00;34.25;;;;;9.64;90.79;101377.38;4988870;28;11350;-65
2023/03/21 03:39:13;;;;;;;;;34.50;30.00;;;;;9.60;90.74;101376.06;5005012;28;11262;-65
2023/03/21 03:41:49;;;;;;;;;25.00;23.75;;;;;9.62;90.29;101371.31;4992563;28;11376;-65
2023/03/21 03:44:40;;;;;;;;;32.00;29.75;;;;;9.64;90.74;101368.44;5006982;28;11141;-66
2023/03/21 03:47:11;;;;;;;;;27.50;24.25;;;;;9.69;91.07;101376.00;4983657;28;11853;-65
2023/03/21 03:50:02;;;;;;;;;36.75;33.25;;;;;9.63;90.20;101361.41;4990074;28;10995;-65
2023/03/21 03:52:41;;;;;;;;;42.00;29.50;;;;;9.59;90.66;101358.22;4988043;28;11293;-65
2023/03/21 03:55:26;;;;;;;;;29.50;28.50;;;;;9.57;90.96;101367.50;4991004;28;11115;-65
2023/03/21 03:57:54;;;;;;;;;37.50;32.75;;;;;9.51;91.05;101366.31;4993461;28;11172;-65
2023/03/21 04:00:21;;;;;;;;;34.00;31.75;;;;;9.53;91.16;101361.63;5005281;28;11232;-67
2023/03/21 04:02:49;;;;;;;;;36.75;32.50;;;;;9.57;91.18;101359.44;5005492;28;11327;-64
2023/03/21 04:05:21;;;;;;;;;30.00;27.25;;;;;9.55;91.13;101361.44;4990709;28;11352;-64
2023/03/21 04:07:49;;;;;;;;;35.75;27.25;;;;;9.58;90.79;101356.56;4993203;28;10914;-64
2023/03/21 04:10:20;;;;;;;;;28.50;23.25;;;;;9.56;90.68;101357.72;4990502;28;12014;-66
2023/03/21 04:12:46;;;;;;;;;33.00;30.50;;;;;9.55;90.94;101356.91;4987712;28;10841;-66
2023/03/21 04:15:31;;;;;;;;;29.25;27.00;;;;;9.52;91.02;101359.09;4991901;28;11180;-65
2023/03/21 04:18:05;;;;;;;;;28.75;26.75;;;;;9.54;91.24;101357.09;4985257;28;11043;-65
2023/03/21 04:20:31;;;;;;;;;25.25;21.50;;;;;9.56;91.30;101355.03;4996728;28;11091;-67
2023/03/21 04:23:04;;;;;;;;;27.00;21.75;;;;;9.57;90.95;101354.88;4986457;28;10956;-65
2023/03/21 04:25:35;;;;;;;;;25.50;24.00;;;;;9.54;90.67;101349.84;4992262;28;11022;-67
2023/03/21 04:28:06;;;;;;;;;36.75;28.50;;;;;9.48;91.15;101349.72;4993423;28;10840;-66
2023/03/21 04:30:37;;;;;;;;;29.25;23.25;;;;;9.48;91.15;101352.41;4993192;28;11153;-65
2023/03/21 04:33:11;;;;;;;;;23.50;21.75;;;;;9.48;91.16;101358.63;4992896;28;11098;-66
2023/03/21 04:35:44;;;;;;;;;21.00;20.50;;;;;9.49;90.65;101349.56;4973713;28;11037;-66
2023/03/21 04:38:12;;;;;;;;;26.25;22.75;;;;;9.49;91.17;101348.72;5007443;28;11806;-65
2023/03/21 04:40:39;;;;;;;;;24.00;20.00;;;;;9.49;91.06;101343.34;5010491;28;11121;-66
2023/03/21 04:43:06;;;;;;;;;23.75;22.25;;;;;9.53;91.06;101350.03;4992980;28;11024;-64
2023/03/21 04:45:36;;;;;;;;;23.00;21.50;;;;;9.51;90.81;101346.69;5008925;28;11038;-65
2023/03/21 04:48:03;;;;;;;;;23.00;22.50;;;;;9.47;90.53;101340.81;5010132;28;10935;-64
2023/03/21 04:50:31;;;;;;;;;26.25;24.00;;;;;9.49;90.92;101343.34;5010125;28;11080;-66
2023/03/21 04:52:58;;;;;;;;;26.50;24.50;;;;;9.46;90.88;101349.06;4992337;28;11158;-66
2023/03/21 04:55:26;;;;;;;;;29.50;26.50;;;;;9.43;90.90;101341.34;5004063;28;11120;-66
2023/03/21 04:57:53;;;;;;;;;22.50;22.00;;;;;9.37;90.73;101338.34;4974051;28;11179;-65
2023/03/21 05:00:21;;;;;;;;;23.00;18.50;;;;;9.40;91.42;101337.19;4986004;28;10961;-66
2023/03/21 05:02:48;;;;;;;;;21.25;17.75;;;;;9.45;90.92;101336.66;4992467;28;10878;-66
2023/03/21 05:05:15;;;;;;;;;21.75;19.25;;;;;9.44;90.96;101341.19;4990922;28;10849;-66
2023/03/21 05:07:41;;;;;;;;;21.50;19.75;;;;;9.45;90.62;101337.47;5009030;28;10987;-66
2023/03/21 05:10:10;;;;;;;;;17.00;17.00;;;;;9.46;90.95;101341.84;4992852;28;10913;-66
2023/03/21 05:12:40;;;;;;;;;18.00;16.00;;;;;9.44;90.64;101335.81;4992461;28;10912;-66
2023/03/21 05:15:07;;;;;;;;;21.00;18.75;;;;;9.45;91.01;101331.28;4989901;28;11586;-66
2023/03/21 05:17:35;;;;;;;;;16.00;15.00;;;;;9.45;90.60;101336.66;4991123;28;10918;-66
2023/03/21 05:20:03;;;;;;;;;25.00;19.00;;;;;9.47;90.96;101332.75;4992675;28;10642;-66
2023/03/21 05:22:39;;;;;;;;;28.25;24.00;;;;;9.44;90.55;101334.94;4991866;28;10997;-66
2023/03/21 05:25:11;;;;;;;;;28.00;22.75;;;;;9.45;90.47;101324.03;4990808;28;10949;-66
2023/03/21 05:28:00;;;;;;;;;21.25;20.00;;;;;9.47;90.74;101327.38;4992248;28;10772;-65
2023/03/21 05:30:29;;;;;;;;;24.75;19.50;;;;;9.45;90.67;101324.03;4989132;28;10743;-66
2023/03/21 05:32:59;;;;;;;;;22.00;21.50;;;;;9.44;90.45;101330.44;4990902;28;10840;-66
2023/03/21 05:35:26;;;;;;;;;21.50;16.75;;;;;9.44;90.08;101324.19;5000007;28;10891;-65
2023/03/21 05:37:56;;;;;;;;;20.25;19.25;;;;;9.43;90.02;101328.75;5003722;28;10781;-66
2023/03/21 05:40:24;;;;;;;;;20.75;18.75;;;;;9.45;90.35;101332.09;4991333;28;10901;-65
2023/03/21 05:42:54;;;;;;;;;18.25;16.25;;;;;9.46;90.41;101323.03;5001489;28;10681;-65
2023/03/21 05:45:22;;;;;;;;;21.25;12.50;;;;;9.50;90.02;101329.72;4986404;28;10567;-65
2023/03/21 05:47:50;;;;;;;;;18.75;18.00;;;;;9.50;90.31;101327.03;4998725;28;10671;-66
2023/03/21 05:50:19;;;;;;;;;18.25;17.25;;;;;9.45;90.19;101324.03;4983231;28;10651;-65
2023/03/21 05:52:59;;;;;;;;;23.00;19.25;;;;;9.48;89.64;101331.75;4986328;28;10612;-65
2023/03/21 05:55:25;;;;;;;;;17.00;16.00;;;;;9.51;90.05;101325.19;5006096;28;10671;-67
2023/03/21 05:57:52;;;;;;;;;18.25;17.25;;;;;9.51;89.79;101326.00;4987905;28;10774;-66
2023/03/21 06:00:24;;;;;;;;;14.75;12.00;;;;;9.56;90.16;101318.28;5003845;28;10758;-66
2023/03/21 06:03:09;;;;;;;;;19.50;19.00;;;;;9.57;90.08;101324.50;4990457;28;10952;-66
2023/03/21 06:05:49;;;;;;;;;16.75;16.75;;;;;9.57;89.71;101328.00;4991031;28;10948;-66
2023/03/21 06:08:21;;;;;;;;;22.75;21.00;;;;;9.56;89.66;101322.78;4984435;28;10801;-67
2023/03/21 06:10:50;;;;;;;;;18.25;16.75;;;;;9.59;89.06;101331.34;4995298;28;10847;-67
2023/03/21 06:13:17;;;;;;;;;17.50;15.75;;;;;9.58;89.19;101327.00;4991662;28;10760;-66
2023/03/21 06:15:44;;;;;;;;;19.75;19.00;;;;;9.60;89.47;101326.81;4993485;28;11320;-65
2023/03/21 06:18:15;;;;;;;;;21.75;19.25;;;;;9.56;89.24;101325.47;4985416;28;10812;-67
2023/03/21 06:20:53;;;;;;;;;22.00;20.75;;;;;9.57;89.02;101325.31;4991159;28;10884;-66
2023/03/21 06:23:20;;;;;;;;;17.50;16.25;;;;;9.62;89.37;101331.00;4994947;28;10768;-66
2023/03/21 06:25:47;;;;;;;;;16.75;14.25;;;;;9.64;89.27;101328.13;4994161;28;11436;-66
2023/03/21 06:28:13;;;;;;;;;28.00;25.00;;;;;9.65;89.02;101329.81;4992398;28;10684;-65
2023/03/21 06:30:40;;;;;;;;;31.25;25.75;;;;;9.62;88.76;101331.00;4992132;28;11049;-66
2023/03/21 06:33:17;;;;;;;;;28.00;25.75;;;;;9.64;88.84;101331.69;4994637;28;11057;-64
2023/03/21 06:35:50;;;;;;;;;35.25;30.00;;;;;9.63;88.31;101326.47;4982015;28;11200;-65
2023/03/21 06:38:18;;;;;;;;;23.00;21.50;;;;;9.64;88.77;101329.00;4991509;28;11353;-65
2023/03/21 06:40:46;;;;;;;;;28.25;24.25;;;;;9.61;88.79;101323.13;4993090;28;10953;-65
2023/03/21 06:43:13;;;;;;;;;28.00;26.00;;;;;9.61;89.06;101331.19;4989659;28;11105;-65
2023/03/21 06:45:39;;;;;;;;;27.75;23.50;;;;;9.63;88.42;101324.59;4993555;28;11562;-66
2023/03/21 06:48:09;;;;;;;;;25.75;20.25;;;;;9.62;88.42;101336.38;5001852;28;11159;-67
2023/03/21 06:50:49;;;;;;;;;23.25;19.75;;;;;9.64;88.44;101331.69;4991539;28;11188;-67
2023/03/21 06:53:28;;;;;;;;;25.25;23.25;;;;;9.61;88.48;101323.97;5032875;22;10832;-66
2023/03/21 06:56:14;;;;;;;;;28.75;25.00;;;;;9.62;88.07;101327.47;5017464;28;10978;-66
2023/03/21 06:58:43;;;;;;;;;25.50;22.25;;;;;9.61;88.39;101331.19;5012286;28;11234;-66
2023/03/21 07:01:19;;;;;;;;;18.25;16.50;;;;;9.62;87.99;101327.47;5002925;28;11069;-68
2023/03/21 07:04:00;;;;;;;;;30.25;21.00;;;;;9.62;87.87;101327.47;4989376;28;10995;-68
2023/03/21 07:06:29;;;;;;;;;30.25;29.50;;;;;9.57;88.21;101330.69;4991237;28;11069;-67
2023/03/21 07:08:55;;;;;;;;;27.25;25.25;;;;;9.54;87.94;101324.84;4998188;28;11239;-66
2023/03/21 07:11:24;;;;;;;;;17.50;16.25;;;;;9.62;88.55;101327.47;4990030;28;11041;-63
2023/03/21 07:13:51;;;;;;;;;22.75;17.50;;;;;9.79;88.95;101330.91;4992463;28;10897;-66
2023/03/21 07:16:18;;;;;;;;;29.75;26.75;;;;;9.79;88.38;101323.69;5010891;28;10784;-66
2023/03/21 07:18:45;;;;;;;;;25.00;24.00;;;;;9.75;87.44;101319.66;5010963;28;11120;-67
2023/03/21 07:21:12;;;;;;;;;24.00;21.50;;;;;9.73;87.79;101324.41;5000030;28;11701;-66
2023/03/21 07:23:39;;;;;;;;;19.50;17.25;;;;;9.73;87.72;101321.72;4984648;28;11010;-67
2023/03/21 07:26:07;;;;;;;;;25.00;23.00;;;;;9.76;87.79;101324.03;4988582;28;10846;-66
2023/03/21 07:28:34;;;;;;;;;24.00;21.75;;;;;9.70;87.23;101308.63;4988426;28;10923;-66
2023/03/21 07:31:05;;;;;;;;;21.75;17.50;;;;;9.59;87.19;101304.47;4983535;28;11056;-67
2023/03/21 07:33:32;;;;;;;;;22.25;19.75;;;;;9.62;87.48;101305.97;4990740;28;11137;-66
2023/03/21 07:36:00;;;;;;;;;16.75;15.75;;;;;9.63;87.73;101303.09;4987199;28;10940;-68
2023/03/21 07:38:30;;;;;;;;;22.50;22.50;;;;;9.66;87.94;101296.53;4991462;28;10853;-67
2023/03/21 07:40:59;;;;;;;;;21.50;18.25;;;;;9.64;87.85;101306.63;4985564;28;11620;-66
2023/03/21 07:43:29;;;;;;;;;16.50;16.50;;;;;9.69;88.08;101304.25;4987699;28;10941;-66
2023/03/21 07:45:58;;;;;;;;;18.50;18.25;;;;;9.71;88.00;101298.69;5001204;28;10909;-66
2023/03/21 07:48:26;;;;;;;;;20.00;14.75;;;;;9.73;87.40;101307.44;5002005;28;10836;-66
2023/03/21 07:50:53;;;;;;;;;21.25;18.75;;;;;9.73;87.76;101310.13;5003519;28;10915;-67
2023/03/21 07:53:19;;;;;;;;;22.75;15.25;;;;;9.74;87.74;101301.03;4989602;28;11534;-67
2023/03/21 07:55:55;;;;;;;;;32.00;24.25;;;;;9.72;87.41;101295.81;4999049;28;11038;-67
2023/03/21 07:58:24;;;;;;;;;24.00;21.50;;;;;9.73;87.62;101291.31;4999812;28;11202;-67
2023/03/21 08:00:51;;;;;;;;;24.00;16.50;;;;;9.73;87.90;101288.63;5001349;28;10750;-66
2023/03/21 08:03:18;;;;;;;;;14.50;14.50;;;;;9.74;88.06;101287.59;5009785;28;10700;-66
2023/03/21 08:05:45;;;;;;;;;20.75;20.50;;;;;9.73;87.54;101291.31;5010307;28;10680;-67
2023/03/21 08:08:12;;;;;;;;;17.75;16.75;;;;;9.73;87.77;101288.63;5006757;28;10843;-67
2023/03/21 08:10:38;;;;;;;;;21.25;17.00;;;;;9.72;87.17;101290.44;5009378;28;10662;-66
2023/03/21 08:13:05;;;;;;;;;21.25;19.25;;;;;9.72;87.84;101286.94;4996554;28;10631;-65
2023/03/21 08:15:31;;;;;;;;;22.75;21.00;;;;;9.73;87.95;101283.25;5009219;28;10933;-67
2023/03/21 08:17:59;;;;;;;;;20.25;19.00;;;;;9.69;87.70;101280.06;5009722;28;10945;-67
2023/03/21 08:20:26;;;;;;;;;21.25;19.75;;;;;9.69;87.69;101276.56;5011173;28;11544;-67
2023/03/21 08:22:52;;;;;;;;;19.75;15.75;;;;;9.73;87.88;101269.81;5007187;28;10865;-67
2023/03/21 08:25:21;;;;;;;;;17.00;16.75;;;;;9.73;87.63;101269.81;5011144;28;10904;-66
2023/03/21 08:27:49;;;;;;;;;22.00;20.25;;;;;9.69;88.03;101268.50;5006242;28;10894;-68
2023/03/21 08:30:19;;;;;;;;;21.50;19.50;;;;;9.68;88.31;101269.47;4993040;28;10783;-67
2023/03/21 08:32:45;;;;;;;;;17.00;15.50;;;;;9.66;87.88;101254.38;5003503;28;10959;-66
2023/03/21 08:35:14;;;;;;;;;24.00;23.00;;;;;9.69;88.60;101255.03;5005316;28;10748;-66
2023/03/21 08:37:42;;;;;;;;;21.50;19.75;;;;;9.70;87.89;101254.03;5002673;28;10946;-66
2023/03/21 08:40:12;;;;;;;;;16.75;14.50;;;;;9.71;88.21;101256.53;5006635;28;10725;-67
2023/03/21 08:42:40;;;;;;;;;15.25;15.00;;;;;9.76;88.41;101253.28;5004717;28;10614;-67
2023/03/21 08:45:08;;;;;;;;;15.75;15.75;;;;;9.81;88.46;101242.88;4987155;28;10795;-67
2023/03/21 08:47:34;;;;;;;;;20.50;19.00;;;;;9.80;87.75;101246.53;5008556;28;11406;-67
2023/03/21 08:50:01;;;;;;;;;21.00;17.75;;;;;9.84;87.98;101239.78;5003898;28;10842;-67
2023/03/21 08:52:27;;;;;;;;;19.50;18.00;;;;;9.85;88.45;101236.94;5005713;28;11466;-67
2023/03/21 08:54:54;;;;;;;;;22.75;19.50;;;;;9.90;88.54;101233.72;5005742;28;10664;-66
2023/03/21 08:57:20;;;;;;;;;20.25;18.50;;;;;9.96;88.39;101238.34;5016308;28;10837;-68
2023/03/21 08:59:47;;;;;;;;;15.75;13.00;;;;;9.99;88.21;101234.47;4984890;28;10805;-68
2023/03/21 09:02:15;;;;;;;;;19.75;16.25;;;;;10.05;88.33;101231.06;4979246;28;10501;-67
2023/03/21 09:04:43;;;;;;;;;15.75;15.75;;;;;10.08;88.19;101231.53;4997267;28;10735;-67
2023/03/21 09:07:13;;;;;;;;;21.25;16.00;;;;;10.08;87.61;101236.06;5003040;28;10546;-66
2023/03/21 09:09:40;;;;;;;;;22.75;21.00;;;;;10.07;88.11;101237.94;5008790;28;10551;-66
2023/03/21 09:12:07;;;;;;;;;18.00;18.00;;;;;10.13;88.19;101234.53;5019823;28;10759;-66
2023/03/21 09:14:34;;;;;;;;;21.50;19.75;;;;;10.19;87.72;101230.25;4994514;28;10807;-66
2023/03/21 09:17:00;;;;;;;;;19.75;17.75;;;;;10.28;87.54;101223.81;5010224;28;10602;-65
2023/03/21 09:19:27;;;;;;;;;20.50;19.50;;;;;10.32;87.43;101224.28;5006964;28;10610;-66
2023/03/21 09:21:54;;;;;;;;;19.25;15.75;;;;;10.31;87.53;101220.75;5004665;28;10537;-67
2023/03/21 09:24:20;;;;;;;;;19.25;19.25;;;;;10.31;86.93;101206.47;5009037;28;10596;-65
2023/03/21 09:26:49;;;;;;;;;17.50;17.50;;;;;10.38;87.10;101210.13;5002362;28;10903;-66
2023/03/21 09:29:20;;;;;;;;;15.00;14.00;;;;;10.42;86.48;101203.34;5012001;28;10437;-66
2023/03/21 09:31:46;;;;;;;;;19.25;14.25;;;;;10.47;86.41;101213.53;4991598;28;10546;-66
2023/03/21 09:34:14;;;;;;;;;16.50;13.50;;;;;10.43;85.79;101212.25;5002909;28;10512;-67
2023/03/21 09:36:42;;;;;;;;;15.50;14.25;;;;;10.37;85.71;101211.09;5011904;28;10587;-66
2023/03/21 09:39:10;;;;;;;;;13.00;11.25;;;;;10.48;85.26;101210.66;5006988;28;11154;-65
2023/03/21 09:41:40;;;;;;;;;16.75;13.50;;;;;10.48;84.99;101207.97;5011414;28;10435;-65
2023/03/21 09:44:21;;;;;;;;;9.75;9.75;;;;;10.47;84.89;101205.47;5011531;28;10569;-66
2023/03/21 09:46:59;;;;;;;;;19.00;17.25;;;;;10.43;85.16;101204.16;5006641;28;10461;-66
2023/03/21 09:49:34;;;;;;;;;13.00;11.00;;;;;10.48;84.62;101205.28;4989268;28;11320;-65
2023/03/21 09:52:08;;;;;;;;;13.50;13.00;;;;;10.51;85.04;101213.00;5016879;28;10532;-67
2023/03/21 09:54:39;;;;;;;;;11.75;9.75;;;;;10.56;84.48;101207.88;5007835;28;10379;-66
2023/03/21 09:57:32;;;;;;;;;16.50;13.50;;;;;10.58;84.13;101210.41;5011579;28;10409;-67
2023/03/21 10:00:10;;;;;;;;;17.00;14.00;;;;;10.56;84.08;101201.66;5004422;28;10965;-67
2023/03/21 10:02:45;;;;;;;;;17.25;13.50;;;;;10.61;83.81;101199.25;5012064;28;10490;-66
2023/03/21 10:05:34;;;;;;;;;18.50;16.50;;;;;10.66;83.69;101188.78;5002340;28;10496;-66
2023/03/21 10:08:26;;;;;;;;;15.75;15.50;;;;;10.67;83.78;101190.44;5013507;28;10534;-67
2023/03/21 10:10:55;;;;;;;;;16.75;14.75;;;;;10.63;83.59;101202.59;4993973;28;10347;-66
2023/03/21 10:13:26;;;;;;;;;15.50;13.00;;;;;10.67;83.45;101200.38;5029610;28;10583;-65
2023/03/21 10:15:59;;;;;;;;;13.75;13.00;;;;;10.75;83.19;101200.28;4993959;28;10399;-67
2023/03/21 10:18:29;;;;;;;;;14.25;13.00;;;;;10.80;83.40;101192.47;4994434;28;10349;-66
2023/03/21 10:20:56;;;;;;;;;14.75;14.75;;;;;10.77;83.26;101187.44;5000220;28;10357;-67
2023/03/21 10:23:27;;;;;;;;;19.75;18.00;;;;;10.82;83.24;101188.59;4995279;28;10485;-66
2023/03/21 10:25:58;;;;;;;;;16.75;14.00;;;;;10.83;82.96;101179.47;5009312;28;10614;-67
2023/03/21 10:28:29;;;;;;;;;15.75;12.75;;;;;10.92;82.90;101198.22;5004775;28;10409;-68
2023/03/21 10:31:08;;;;;;;;;7.50;7.25;;;;;11.04;83.31;101191.31;5009365;28;11136;-67
2023/03/21 10:33:38;;;;;;;;;15.50;14.00;;;;;11.12;83.02;101189.34;5007665;28;10318;-65
2023/03/21 10:36:09;;;;;;;;;22.00;16.75;;;;;11.16;82.46;101181.72;5011979;28;10367;-65
2023/03/21 10:38:42;;;;;;;;;20.25;17.00;;;;;11.18;82.28;101182.38;5004028;28;10455;-65
2023/03/21 10:41:10;;;;;;;;;17.00;16.00;;;;;11.23;82.06;101190.72;5013442;28;10594;-67
2023/03/21 10:43:39;;;;;;;;;16.00;14.75;;;;;11.26;82.13;101190.34;5027322;28;10277;-66
2023/03/21 10:46:11;;;;;;;;;22.25;22.25;;;;;11.34;82.33;101194.78;5011669;28;10414;-65
2023/03/21 10:48:44;;;;;;;;;22.25;20.25;;;;;11.20;82.21;101199.19;5012769;28;10608;-66
2023/03/21 10:51:18;;;;;;;;;18.00;16.50;;;;;11.22;82.46;101194.47;5012926;28;10404;-66
2023/03/21 10:53:59;;;;;;;;;18.00;16.00;;;;;11.31;82.49;101193.31;5010914;28;10419;-67
2023/03/21 10:56:29;;;;;;;;;18.00;17.50;;;;;11.38;82.22;101196.91;5014566;28;10268;-67
2023/03/21 10:59:00;;;;;;;;;13.00;13.00;;;;;11.43;82.04;101190.94;5009764;28;10510;-67
2023/03/21 11:01:29;;;;;;;;;18.75;18.50;;;;;11.47;81.75;101186.84;5014241;28;11186;-67
2023/03/21 11:03:59;;;;;;;;;18.00;14.25;;;;;11.52;81.90;101192.50;5024854;28;10318;-67
2023/03/21 11:06:26;;;;;;;;;25.00;22.00;;;;;11.47;81.45;101183.31;5013346;28;11132;-67
2023/03/21 11:08:55;;;;;;;;;19.25;19.25;;;;;11.37;81.55;101187.13;5010148;28;10515;-67
2023/03/21 11:11:28;;;;;;;;;21.50;19.00;;;;;11.34;81.84;101182.16;5010307;28;10433;-67
2023/03/21 11:13:58;;;;;;;;;22.50;19.00;;;;;11.29;81.54;101181.88;5018614;28;10626;-68
2023/03/21 11:16:35;;;;;;;;;15.75;14.50;;;;;11.29;81.74;101175.66;5012835;28;10501;-68
2023/03/21 11:19:15;;;;;;;;;21.00;19.75;;;;;11.27;81.80;101173.16;4999464;28;10358;-68
2023/03/21 11:21:42;;;;;;;;;23.25;21.75;;;;;11.16;82.10;101176.34;4993832;28;10358;-68
2023/03/21 11:24:15;;;;;;;;;18.25;16.75;;;;;11.20;82.29;101169.53;5009835;28;10525;-68
2023/03/21 11:26:44;;;;;;;;;21.00;18.75;;;;;11.21;82.29;101157.72;4993415;28;10519;-67
2023/03/21 11:29:20;;;;;;;;;18.50;17.75;;;;;11.29;82.05;101149.53;5010429;28;10707;-67
2023/03/21 11:31:47;;;;;;;;;22.50;19.00;;;;;11.34;82.22;101163.28;4976727;28;10238;-65
2023/03/21 11:34:25;;;;;;;;;21.75;21.00;;;;;11.39;82.15;101155.44;5009694;28;10532;-67
2023/03/21 11:36:58;;;;;;;;;25.25;22.50;;;;;11.38;81.81;101145.72;5002427;28;10526;-66
2023/03/21 11:39:38;;;;;;;;;23.25;21.25;;;;;11.40;81.76;101137.41;4986053;28;10444;-67